createdAt,value
2022-12-19T00:01:45.428Z,85.47
2022-12-19T00:08:59.675Z,84.57
2022-12-19T00:32:34.058Z,84.15
2022-12-19T00:47:25.136Z,78.00
2022-12-19T00:50:29.134Z,83.45
2022-12-19T00:53:32.756Z,78.53
2022-12-19T00:56:38.464Z,82.55
2022-12-19T00:59:44.122Z,78.37
2022-12-19T01:02:48.127Z,83.05
2022-12-19T01:05:53.894Z,84.15
2022-12-19T01:08:59.081Z,82.95
2022-12-19T01:12:25.281Z,85.75
2022-12-19T01:15:29.327Z,83.85
2022-12-19T01:33:28.210Z,95.62
2022-12-19T01:48:57.156Z,98.70
2022-12-19T02:16:18.884Z,86.50
2022-12-19T02:20:42.362Z,93.30
2022-12-19T02:28:42.721Z,97.00
2022-12-19T02:45:41.823Z,87.20
2022-12-19T02:49:30.564Z,91.25
2022-12-19T03:01:56.981Z,90.62
2022-12-19T03:35:49.493Z,92.20
2022-12-19T04:22:07.723Z,90.22
2022-12-19T05:06:50.735Z,90.55
2022-12-19T05:09:55.671Z,94.37
2022-12-19T05:13:00.900Z,83.78
2022-12-19T05:16:09.314Z,90.82
2022-12-19T05:19:14.670Z,84.72
2022-12-19T05:22:20.963Z,93.15
2022-12-19T05:25:25.967Z,89.82
2022-12-19T05:28:33.438Z,88.78
2022-12-19T05:32:16.667Z,86.78
2022-12-19T05:35:30.491Z,81.97
2022-12-19T05:42:18.614Z,90.72
2022-12-19T05:45:48.378Z,85.72
2022-12-19T05:52:53.336Z,88.75
2022-12-19T06:00:11.662Z,86.90
2022-12-19T06:06:53.641Z,96.57
2022-12-19T06:14:01.463Z,98.40
2022-12-19T06:17:35.195Z,92.30
2022-12-19T06:20:45.862Z,92.55
2022-12-19T06:23:52.372Z,97.47
2022-12-19T06:26:57.683Z,98.28
2022-12-19T06:30:03.414Z,97.88
2022-12-19T06:33:15.641Z,98.60
2022-12-19T06:36:27.882Z,89.93
2022-12-19T06:39:44.777Z,92.05
2022-12-19T06:43:24.924Z,97.95
2022-12-19T06:46:29.583Z,89.80
2022-12-19T06:53:28.356Z,96.87
2022-12-19T07:04:52.889Z,90.18
2022-12-19T07:16:20.576Z,88.75
2022-12-19T07:19:25.574Z,86.03
2022-12-19T07:30:14.261Z,82.00
2022-12-19T07:33:27.204Z,84.18
2022-12-19T07:55:56.541Z,52.92
2022-12-19T07:58:59.282Z,53.10
2022-12-19T08:02:01.830Z,48.60
2022-12-19T08:05:05.992Z,51.55
2022-12-19T08:08:10.244Z,52.30
2022-12-19T08:11:18.859Z,53.05
2022-12-19T08:14:21.613Z,55.10
2022-12-19T08:17:24.841Z,58.85
2022-12-19T08:20:27.227Z,54.17
2022-12-19T08:23:29.963Z,60.72
2022-12-19T08:26:40.598Z,63.30
2022-12-19T08:29:49.608Z,63.40
2022-12-19T08:32:51.809Z,67.07
2022-12-19T08:35:57.410Z,61.22
2022-12-19T08:39:00.342Z,69.40
2022-12-19T08:42:04.317Z,65.10
2022-12-19T08:45:07.905Z,66.15
2022-12-19T08:48:11.060Z,66.95
2022-12-19T08:59:04.856Z,53.80
2022-12-19T09:02:17.759Z,48.45
2022-12-19T09:06:01.224Z,47.40
2022-12-19T09:09:20.267Z,43.83
2022-12-19T09:12:26.775Z,44.60
2022-12-19T09:15:45.566Z,44.05
2022-12-19T09:18:51.597Z,43.28
2022-12-19T09:21:53.997Z,43.92
2022-12-19T09:24:57.983Z,45.67
2022-12-19T09:28:26.805Z,43.95
2022-12-19T09:31:29.502Z,42.08
2022-12-19T09:34:48.745Z,42.53
2022-12-19T09:37:56.645Z,43.92
2022-12-19T09:41:08.606Z,42.38
2022-12-19T09:44:26.020Z,44.25
2022-12-19T09:47:36.299Z,41.70
2022-12-19T09:51:24.521Z,43.10
2022-12-19T09:55:05.983Z,41.10
2022-12-19T09:58:32.569Z,42.35
2022-12-19T10:02:02.465Z,44.80
2022-12-19T10:05:39.781Z,49.15
2022-12-19T10:09:28.509Z,47.50
2022-12-19T10:12:45.532Z,44.35
2022-12-19T10:16:19.463Z,47.15
2022-12-19T10:19:34.807Z,47.65
2022-12-19T10:23:14.214Z,45.88
2022-12-19T10:26:23.526Z,48.58
2022-12-19T10:29:59.387Z,49.13
2022-12-19T10:33:18.324Z,44.83
2022-12-19T10:36:42.306Z,46.03
2022-12-19T10:40:27.695Z,45.97
2022-12-19T10:58:51.579Z,44.05
2022-12-19T11:02:28.738Z,44.20
2022-12-19T11:05:43.472Z,43.78
2022-12-19T11:09:23.995Z,43.25
2022-12-19T11:18:27.429Z,46.97
2022-12-19T11:29:31.407Z,43.28
2022-12-19T11:29:37.218Z,40.17
2022-12-19T11:30:44.326Z,49.53
2022-12-19T11:47:57.502Z,41.05
2022-12-19T11:51:18.991Z,45.22
2022-12-19T12:02:59.898Z,43.33
2022-12-19T12:06:15.739Z,45.35
2022-12-19T12:13:27.109Z,45.78
